sensor_id;sensor_type;location;lat;lon;timestamp;pressure;altitude;pressure_sealevel;temperature;humidity
37298;BME280;30517;51.932;4.278;2022-12-07T00:01:04;101934.53;;;5.94;76.32
37298;BME280;30517;51.932;4.278;2022-12-07T00:03:46;101958.59;;;6.08;76.51
37298;BME280;30517;51.932;4.278;2022-12-07T00:06:27;101964.06;;;6.15;76.63
37298;BME280;30517;51.932;4.278;2022-12-07T00:09:16;101911.47;;;5.84;76.47
37298;BME280;30517;51.932;4.278;2022-12-07T00:11:57;101953.22;;;6.05;76.60
37298;BME280;30517;51.932;4.278;2022-12-07T00:14:38;101952.34;;;6.04;76.73
37298;BME280;30517;51.932;4.278;2022-12-07T00:17:19;101943.34;;;5.96;76.56
37298;BME280;30517;51.932;4.278;2022-12-07T00:19:59;101949.81;;;6.07;76.42
37298;BME280;30517;51.932;4.278;2022-12-07T00:22:40;101958.22;;;5.97;76.64
37298;BME280;30517;51.932;4.278;2022-12-07T00:25:21;101935.16;;;5.88;76.82
37298;BME280;30517;51.932;4.278;2022-12-07T00:28:02;101945.31;;;6.03;76.60
37298;BME280;30517;51.932;4.278;2022-12-07T00:30:42;101954.94;;;6.03;76.62
37298;BME280;30517;51.932;4.278;2022-12-07T00:33:23;101948.03;;;6.06;76.46
37298;BME280;30517;51.932;4.278;2022-12-07T00:36:07;101940.00;;;6.00;76.16
37298;BME280;30517;51.932;4.278;2022-12-07T00:38:49;101939.09;;;6.00;76.63
37298;BME280;30517;51.932;4.278;2022-12-07T00:41:30;101923.81;;;5.88;76.66
37298;BME280;30517;51.932;4.278;2022-12-07T00:44:11;101917.75;;;5.89;76.18
37298;BME280;30517;51.932;4.278;2022-12-07T00:46:51;101872.19;;;5.58;76.68
37298;BME280;30517;51.932;4.278;2022-12-07T00:49:32;101912.25;;;5.81;76.51
37298;BME280;30517;51.932;4.278;2022-12-07T00:52:16;101934.38;;;5.91;76.74
37298;BME280;30517;51.932;4.278;2022-12-07T00:54:56;101935.56;;;5.99;76.46
37298;BME280;30517;51.932;4.278;2022-12-07T00:57:37;101940.69;;;5.94;76.25
37298;BME280;30517;51.932;4.278;2022-12-07T01:00:18;101931.91;;;5.94;76.47
37298;BME280;30517;51.932;4.278;2022-12-07T01:02:59;101894.44;;;5.71;76.50
37298;BME280;30517;51.932;4.278;2022-12-07T01:05:40;101921.00;;;5.82;76.65
37298;BME280;30517;51.932;4.278;2022-12-07T01:08:29;101930.00;;;5.90;76.54
37298;BME280;30517;51.932;4.278;2022-12-07T01:11:13;101850.59;;;5.40;76.30
37298;BME280;30517;51.932;4.278;2022-12-07T01:13:56;101887.53;;;5.73;76.30
37298;BME280;30517;51.932;4.278;2022-12-07T01:16:38;101885.53;;;5.66;76.14
37298;BME280;30517;51.932;4.278;2022-12-07T01:19:19;101926.50;;;5.89;75.73
37298;BME280;30517;51.932;4.278;2022-12-07T01:21:59;101932.53;;;5.87;76.53
37298;BME280;30517;51.932;4.278;2022-12-07T01:24:40;101898.56;;;5.64;76.43
37298;BME280;30517;51.932;4.278;2022-12-07T01:27:21;101925.28;;;5.80;76.54
37298;BME280;30517;51.932;4.278;2022-12-07T01:30:03;101796.38;;;5.10;76.57
37298;BME280;30517;51.932;4.278;2022-12-07T01:32:45;101925.28;;;5.80;76.40
37298;BME280;30517;51.932;4.278;2022-12-07T01:35:25;101923.72;;;5.85;76.22
37298;BME280;30517;51.932;4.278;2022-12-07T01:38:06;101925.28;;;5.80;76.52
37298;BME280;30517;51.932;4.278;2022-12-07T01:40:54;101924.47;;;5.81;76.40
37298;BME280;30517;51.932;4.278;2022-12-07T01:43:36;101926.03;;;5.75;76.25
37298;BME280;30517;51.932;4.278;2022-12-07T01:46:16;101932.19;;;5.77;76.42
37298;BME280;30517;51.932;4.278;2022-12-07T01:48:57;101928.75;;;5.79;76.20
37298;BME280;30517;51.932;4.278;2022-12-07T01:51:40;101906.66;;;5.70;76.22
37298;BME280;30517;51.932;4.278;2022-12-07T01:54:22;101925.19;;;5.76;76.16
37298;BME280;30517;51.932;4.278;2022-12-07T01:57:04;101931.03;;;5.69;76.50
37298;BME280;30517;51.932;4.278;2022-12-07T01:59:48;101838.78;;;5.25;75.93
37298;BME280;30517;51.932;4.278;2022-12-07T02:02:33;101941.66;;;5.74;76.20
37298;BME280;30517;51.932;4.278;2022-12-07T02:05:15;101862.53;;;5.31;75.91
37298;BME280;30517;51.932;4.278;2022-12-07T02:07:57;101924.50;;;5.82;75.73
37298;BME280;30517;51.932;4.278;2022-12-07T02:10:38;101900.94;;;5.57;76.09
37298;BME280;30517;51.932;4.278;2022-12-07T02:13:23;101900.97;;;5.58;75.98
37298;BME280;30517;51.932;4.278;2022-12-07T02:16:25;101923.34;;;5.74;75.96
37298;BME280;30517;51.932;4.278;2022-12-07T02:22:42;101920.56;;;5.69;76.24
37298;BME280;30517;51.932;4.278;2022-12-07T02:25:41;101919.75;;;5.70;75.92
37298;BME280;30517;51.932;4.278;2022-12-07T02:28:53;101911.13;;;5.74;75.86
37298;BME280;30517;51.932;4.278;2022-12-07T02:31:45;101913.66;;;5.71;75.68
37298;BME280;30517;51.932;4.278;2022-12-07T02:43:19;101908.16;;;5.64;75.81
37298;BME280;30517;51.932;4.278;2022-12-07T02:46:10;101914.06;;;5.58;76.12
37298;BME280;30517;51.932;4.278;2022-12-07T02:48:54;101907.06;;;5.57;76.12
37298;BME280;30517;51.932;4.278;2022-12-07T02:51:39;101909.59;;;5.55;76.22
37298;BME280;30517;51.932;4.278;2022-12-07T02:54:21;101905.41;;;5.59;76.33
37298;BME280;30517;51.932;4.278;2022-12-07T03:00:17;101910.72;;;5.62;76.01
37298;BME280;30517;51.932;4.278;2022-12-07T03:03:11;101886.25;;;5.36;76.42
37298;BME280;30517;51.932;4.278;2022-12-07T03:09:23;101841.69;;;5.09;76.04
37298;BME280;30517;51.932;4.278;2022-12-07T03:12:08;101915.72;;;5.56;76.18
37298;BME280;30517;51.932;4.278;2022-12-07T03:14:57;101907.66;;;5.50;76.33
37298;BME280;30517;51.932;4.278;2022-12-07T03:17:42;101912.72;;;5.45;76.33
37298;BME280;30517;51.932;4.278;2022-12-07T03:20:25;101910.63;;;5.59;76.00
37298;BME280;30517;51.932;4.278;2022-12-07T03:23:10;101905.06;;;5.50;76.07
37298;BME280;30517;51.932;4.278;2022-12-07T03:25:56;101905.06;;;5.50;75.97
37298;BME280;30517;51.932;4.278;2022-12-07T03:28:43;101904.28;;;5.52;76.21
37298;BME280;30517;51.932;4.278;2022-12-07T03:31:31;101904.22;;;5.51;76.00
37298;BME280;30517;51.932;4.278;2022-12-07T03:34:18;101894.47;;;5.47;76.11
37298;BME280;30517;51.932;4.278;2022-12-07T03:37:13;101901.47;;;5.48;76.29
37298;BME280;30517;51.932;4.278;2022-12-07T03:40:19;101897.94;;;5.46;76.17
37298;BME280;30517;51.932;4.278;2022-12-07T03:43:06;101870.44;;;5.33;76.14
37298;BME280;30517;51.932;4.278;2022-12-07T03:57:49;101875.69;;;5.33;76.04
37298;BME280;30517;51.932;4.278;2022-12-07T04:00:32;101880.94;;;5.35;76.25
37298;BME280;30517;51.932;4.278;2022-12-07T04:03:13;101901.25;;;5.40;76.51
37298;BME280;30517;51.932;4.278;2022-12-07T04:05:54;101873.06;;;5.33;76.08
37298;BME280;30517;51.932;4.278;2022-12-07T04:08:35;101904.09;;;5.48;76.28
37298;BME280;30517;51.932;4.278;2022-12-07T04:11:16;101878.09;;;5.27;76.19
37298;BME280;30517;51.932;4.278;2022-12-07T04:13:56;101897.84;;;5.43;75.90
37298;BME280;30517;51.932;4.278;2022-12-07T04:16:57;101887.13;;;5.37;76.55
37298;BME280;30517;51.932;4.278;2022-12-07T04:19:38;101874.69;;;5.29;76.30
37298;BME280;30517;51.932;4.278;2022-12-07T04:22:19;101892.06;;;5.53;75.94
37298;BME280;30517;51.932;4.278;2022-12-07T04:25:00;101876.84;;;5.41;75.90
37298;BME280;30517;51.932;4.278;2022-12-07T04:27:41;101895.44;;;5.49;75.94
37298;BME280;30517;51.932;4.278;2022-12-07T04:30:22;101882.56;;;5.31;76.50
37298;BME280;30517;51.932;4.278;2022-12-07T04:33:02;101866.50;;;5.20;76.30
37298;BME280;30517;51.932;4.278;2022-12-07T04:35:43;101887.38;;;5.43;76.21
37298;BME280;30517;51.932;4.278;2022-12-07T04:38:24;101887.31;;;5.41;75.99
37298;BME280;30517;51.932;4.278;2022-12-07T04:41:06;101879.47;;;5.41;76.31
37298;BME280;30517;51.932;4.278;2022-12-07T04:43:47;101868.78;;;5.35;76.09
37298;BME280;30517;51.932;4.278;2022-12-07T04:46:30;101866.56;;;5.47;75.61
37298;BME280;30517;51.932;4.278;2022-12-07T04:49:12;101847.59;;;5.29;76.01
37298;BME280;30517;51.932;4.278;2022-12-07T04:51:53;101867.22;;;5.40;76.04
37298;BME280;30517;51.932;4.278;2022-12-07T04:54:34;101861.19;;;5.43;75.83
37298;BME280;30517;51.932;4.278;2022-12-07T04:57:15;101845.16;;;5.33;75.75
37298;BME280;30517;51.932;4.278;2022-12-07T04:59:55;101858.31;;;5.35;75.97
37298;BME280;30517;51.932;4.278;2022-12-07T05:02:36;101859.19;;;5.36;76.35
37298;BME280;30517;51.932;4.278;2022-12-07T05:05:17;101853.97;;;5.36;75.59
37298;BME280;30517;51.932;4.278;2022-12-07T05:07:57;101848.53;;;5.29;76.21
37298;BME280;30517;51.932;4.278;2022-12-07T05:10:38;101842.38;;;5.29;75.71
37298;BME280;30517;51.932;4.278;2022-12-07T05:13:19;101828.38;;;5.27;76.24
37298;BME280;30517;51.932;4.278;2022-12-07T05:16:00;101846.69;;;5.27;75.92
37298;BME280;30517;51.932;4.278;2022-12-07T05:18:41;101815.69;;;5.14;76.04
37298;BME280;30517;51.932;4.278;2022-12-07T05:21:22;101840.63;;;5.28;76.38
37298;BME280;30517;51.932;4.278;2022-12-07T05:24:03;101861.66;;;5.31;76.14
37298;BME280;30517;51.932;4.278;2022-12-07T05:26:44;101832.28;;;5.14;76.16
37298;BME280;30517;51.932;4.278;2022-12-07T05:29:25;101858.25;;;5.33;76.00
37298;BME280;30517;51.932;4.278;2022-12-07T05:32:06;101854.44;;;5.24;76.12
37298;BME280;30517;51.932;4.278;2022-12-07T05:34:47;101860.88;;;5.33;76.27
37298;BME280;30517;51.932;4.278;2022-12-07T05:37:28;101865.25;;;5.35;75.52
37298;BME280;30517;51.932;4.278;2022-12-07T05:40:09;101861.81;;;5.36;75.93
37298;BME280;30517;51.932;4.278;2022-12-07T05:42:50;101866.69;;;5.26;76.15
37298;BME280;30517;51.932;4.278;2022-12-07T05:45:31;101864.09;;;5.26;76.07
37298;BME280;30517;51.932;4.278;2022-12-07T05:48:11;101842.84;;;5.17;75.74
37298;BME280;30517;51.932;4.278;2022-12-07T05:50:52;101868.31;;;5.23;75.86
37298;BME280;30517;51.932;4.278;2022-12-07T05:53:33;101858.81;;;5.25;76.22
37298;BME280;30517;51.932;4.278;2022-12-07T05:56:14;101853.63;;;5.26;75.69
37298;BME280;30517;51.932;4.278;2022-12-07T05:58:55;101852.75;;;5.26;75.85
37298;BME280;30517;51.932;4.278;2022-12-07T06:01:56;101855.16;;;5.20;76.31
37298;BME280;30517;51.932;4.278;2022-12-07T06:04:43;101850.00;;;5.23;75.93
37298;BME280;30517;51.932;4.278;2022-12-07T06:07:24;101840.84;;;5.10;76.18
37298;BME280;30517;51.932;4.278;2022-12-07T06:10:05;101845.53;;;5.19;76.08
37298;BME280;30517;51.932;4.278;2022-12-07T06:12:46;101743.75;;;4.51;76.51
37298;BME280;30517;51.932;4.278;2022-12-07T06:15:27;101833.94;;;5.12;75.70
37298;BME280;30517;51.932;4.278;2022-12-07T06:18:07;101858.63;;;5.44;74.14
37298;BME280;30517;51.932;4.278;2022-12-07T06:20:48;101825.16;;;5.10;74.67
37298;BME280;30517;51.932;4.278;2022-12-07T06:23:29;101857.38;;;5.33;74.91
37298;BME280;30517;51.932;4.278;2022-12-07T06:26:10;101802.00;;;4.97;75.19
37298;BME280;30517;51.932;4.278;2022-12-07T06:28:50;101841.06;;;5.16;75.42
37298;BME280;30517;51.932;4.278;2022-12-07T06:31:31;101866.88;;;5.31;75.26
37298;BME280;30517;51.932;4.278;2022-12-07T06:34:15;101866.84;;;5.29;74.92
37298;BME280;30517;51.932;4.278;2022-12-07T06:36:56;101864.22;;;5.29;75.02
37298;BME280;30517;51.932;4.278;2022-12-07T06:39:36;101863.44;;;5.32;75.15
37298;BME280;30517;51.932;4.278;2022-12-07T06:42:18;101866.69;;;5.26;75.60
37298;BME280;30517;51.932;4.278;2022-12-07T06:44:59;101846.19;;;5.13;75.11
37298;BME280;30517;51.932;4.278;2022-12-07T06:47:40;101832.19;;;5.11;75.12
37298;BME280;30517;51.932;4.278;2022-12-07T06:50:21;101865.91;;;5.29;75.20
37298;BME280;30517;51.932;4.278;2022-12-07T06:53:02;101848.19;;;5.20;75.05
37298;BME280;30517;51.932;4.278;2022-12-07T06:55:42;101860.81;;;5.32;74.94
37298;BME280;30517;51.932;4.278;2022-12-07T06:58:23;101847.38;;;5.21;75.43
37298;BME280;30517;51.932;4.278;2022-12-07T07:01:09;101850.09;;;5.24;75.16
37298;BME280;30517;51.932;4.278;2022-12-07T07:03:50;101863.88;;;5.20;75.31
37298;BME280;30517;51.932;4.278;2022-12-07T07:06:32;101861.31;;;5.22;75.68
37298;BME280;30517;51.932;4.278;2022-12-07T07:09:13;101853.47;;;5.22;75.38
37298;BME280;30517;51.932;4.278;2022-12-07T07:11:53;101852.69;;;5.24;74.89
37298;BME280;30517;51.932;4.278;2022-12-07T07:14:34;101845.53;;;5.19;75.16
37298;BME280;30517;51.932;4.278;2022-12-07T07:17:15;101858.81;;;5.25;74.92
37298;BME280;30517;51.932;4.278;2022-12-07T07:19:56;101863.38;;;5.30;74.78
37298;BME280;30517;51.932;4.278;2022-12-07T07:22:37;101839.28;;;5.15;74.88
37298;BME280;30517;51.932;4.278;2022-12-07T07:25:18;101851.00;;;5.26;74.79
37298;BME280;30517;51.932;4.278;2022-12-07T07:27:59;101865.25;;;5.35;74.62
37298;BME280;30517;51.932;4.278;2022-12-07T07:30:40;101849.25;;;5.25;74.16
37298;BME280;30517;51.932;4.278;2022-12-07T07:33:21;101854.69;;;5.31;74.59
37298;BME280;30517;51.932;4.278;2022-12-07T07:36:02;101827.06;;;5.14;74.58
37298;BME280;30517;51.932;4.278;2022-12-07T07:38:43;101843.91;;;5.22;74.72
37298;BME280;30517;51.932;4.278;2022-12-07T07:41:24;101842.84;;;5.17;74.73
37298;BME280;30517;51.932;4.278;2022-12-07T07:44:05;101829.09;;;4.99;74.91
37298;BME280;30517;51.932;4.278;2022-12-07T07:46:45;101880.44;;;5.21;75.03
37298;BME280;30517;51.932;4.278;2022-12-07T07:49:26;101880.44;;;5.21;75.23
37298;BME280;30517;51.932;4.278;2022-12-07T07:52:07;101871.63;;;5.17;75.40
37298;BME280;30517;51.932;4.278;2022-12-07T07:54:48;101856.50;;;5.08;75.18
37298;BME280;30517;51.932;4.278;2022-12-07T07:57:28;101877.03;;;5.22;74.97
37298;BME280;30517;51.932;4.278;2022-12-07T08:00:14;101874.34;;;5.20;75.31
37298;BME280;30517;51.932;4.278;2022-12-07T08:02:55;101873.53;;;5.21;75.17
37298;BME280;30517;51.932;4.278;2022-12-07T08:05:37;101875.47;;;5.27;74.79
37298;BME280;30517;51.932;4.278;2022-12-07T08:08:17;101894.59;;;5.26;74.88
37298;BME280;30517;51.932;4.278;2022-12-07T08:10:58;101866.31;;;5.16;74.68
37298;BME280;30517;51.932;4.278;2022-12-07T08:13:41;101889.16;;;5.20;74.71
37298;BME280;30517;51.932;4.278;2022-12-07T08:16:22;101880.06;;;5.10;75.17
37298;BME280;30517;51.932;4.278;2022-12-07T08:19:04;101763.72;;;4.51;74.76
37298;BME280;30517;51.932;4.278;2022-12-07T08:21:45;101816.03;;;4.75;74.70
37298;BME280;30517;51.932;4.278;2022-12-07T08:24:26;101877.69;;;5.16;74.67
37298;BME280;30517;51.932;4.278;2022-12-07T08:27:07;101882.94;;;5.16;74.77
37298;BME280;30517;51.932;4.278;2022-12-07T08:29:48;101895.16;;;5.17;75.26
37298;BME280;30517;51.932;4.278;2022-12-07T08:32:29;101889.16;;;5.20;74.96
37298;BME280;30517;51.932;4.278;2022-12-07T08:35:10;101889.16;;;5.20;75.44
37298;BME280;30517;51.932;4.278;2022-12-07T08:37:51;101881.38;;;5.21;74.59
37298;BME280;30517;51.932;4.278;2022-12-07T08:40:32;101827.72;;;4.84;74.60
37298;BME280;30517;51.932;4.278;2022-12-07T08:43:14;101845.69;;;4.99;74.70
37298;BME280;30517;51.932;4.278;2022-12-07T08:49:16;101891.38;;;5.09;74.68
37298;BME280;30517;51.932;4.278;2022-12-07T08:51:58;101883.63;;;5.12;75.03
37298;BME280;30517;51.932;4.278;2022-12-07T08:54:39;101898.91;;;5.24;74.83
37298;BME280;30517;51.932;4.278;2022-12-07T08:57:21;101906.63;;;5.21;74.98
37298;BME280;30517;51.932;4.278;2022-12-07T09:00:04;101880.03;;;5.08;74.92
37298;BME280;30517;51.932;4.278;2022-12-07T09:02:45;101893.44;;;5.18;74.86
37298;BME280;30517;51.932;4.278;2022-12-07T09:05:26;101891.84;;;5.21;75.05
37298;BME280;30517;51.932;4.278;2022-12-07T09:08:08;101888.38;;;5.22;74.56
37298;BME280;30517;51.932;4.278;2022-12-07T09:10:49;101902.41;;;5.24;74.81
37298;BME280;30517;51.932;4.278;2022-12-07T09:13:30;101882.94;;;5.16;74.93
37298;BME280;30517;51.932;4.278;2022-12-07T09:16:11;101899.81;;;5.26;74.76
37298;BME280;30517;51.932;4.278;2022-12-07T09:18:52;101895.34;;;5.22;75.00
37298;BME280;30517;51.932;4.278;2022-12-07T09:21:32;101864.75;;;5.21;74.65
37298;BME280;30517;51.932;4.278;2022-12-07T09:24:13;101878.75;;;5.21;74.70
37298;BME280;30517;51.932;4.278;2022-12-07T09:26:54;101804.00;;;4.80;74.73
37298;BME280;30517;51.932;4.278;2022-12-07T09:29:35;101875.47;;;5.27;74.70
37298;BME280;30517;51.932;4.278;2022-12-07T09:32:15;101862.09;;;5.19;74.58
37298;BME280;30517;51.932;4.278;2022-12-07T09:34:56;101879.78;;;5.26;75.11
37298;BME280;30517;51.932;4.278;2022-12-07T09:37:37;101740.09;;;4.48;74.85
37298;BME280;30517;51.932;4.278;2022-12-07T09:40:20;101885.16;;;5.29;74.62
37298;BME280;30517;51.932;4.278;2022-12-07T09:43:01;101879.91;;;5.29;74.99
37298;BME280;30517;51.932;4.278;2022-12-07T09:45:43;101880.72;;;5.28;74.89
37298;BME280;30517;51.932;4.278;2022-12-07T09:48:36;101883.25;;;5.25;75.05
37298;BME280;30517;51.932;4.278;2022-12-07T09:51:20;101490.94;;;2.98;74.32
37298;BME280;30517;51.932;4.278;2022-12-07T09:54:01;101876.38;;;5.29;74.86
37298;BME280;30517;51.932;4.278;2022-12-07T09:56:43;101872.00;;;5.28;74.89
37298;BME280;30517;51.932;4.278;2022-12-07T09:59:25;101880.81;;;5.30;74.89
37298;BME280;30517;51.932;4.278;2022-12-07T10:02:34;101856.09;;;5.22;74.75
37298;BME280;30517;51.932;4.278;2022-12-07T10:05:20;101874.00;;;5.35;74.73
37298;BME280;30517;51.932;4.278;2022-12-07T10:08:04;101872.31;;;5.37;74.41
37298;BME280;30517;51.932;4.278;2022-12-07T10:10:52;101868.91;;;5.40;74.27
37298;BME280;30517;51.932;4.278;2022-12-07T10:13:47;101869.59;;;5.34;74.36
37298;BME280;30517;51.932;4.278;2022-12-07T10:19:30;101845.63;;;5.22;74.46
37298;BME280;30517;51.932;4.278;2022-12-07T10:22:16;101852.41;;;5.41;74.35
37298;BME280;30517;51.932;4.278;2022-12-07T10:25:08;101819.00;;;5.08;74.53
37298;BME280;30517;51.932;4.278;2022-12-07T10:33:40;101838.66;;;5.22;74.86
37298;BME280;30517;51.932;4.278;2022-12-07T10:39:18;101846.94;;;5.35;74.76
37298;BME280;30517;51.932;4.278;2022-12-07T10:42:02;101838.38;;;5.39;74.74
37298;BME280;30517;51.932;4.278;2022-12-07T10:44:43;101845.38;;;5.40;74.81
37298;BME280;30517;51.932;4.278;2022-12-07T10:47:32;101775.25;;;5.04;74.75
37298;BME280;30517;51.932;4.278;2022-12-07T10:50:28;101835.03;;;5.43;74.84
37298;BME280;30517;51.932;4.278;2022-12-07T10:56:24;101820.78;;;5.35;74.71
37298;BME280;30517;51.932;4.278;2022-12-07T11:08:13;101818.41;;;5.42;74.92
37298;BME280;30517;51.932;4.278;2022-12-07T11:14:37;101803.63;;;5.43;74.54
37298;BME280;30517;51.932;4.278;2022-12-07T11:17:45;101801.91;;;5.43;74.97
37298;BME280;30517;51.932;4.278;2022-12-07T11:20:38;101783.53;;;5.42;74.92
37298;BME280;30517;51.932;4.278;2022-12-07T11:23:34;101791.56;;;5.48;74.71
37298;BME280;30517;51.932;4.278;2022-12-07T11:26:49;101776.34;;;5.36;74.85
37298;BME280;30517;51.932;4.278;2022-12-07T11:41:21;101785.44;;;5.47;75.27
37298;BME280;30517;51.932;4.278;2022-12-07T11:44:13;101791.69;;;5.51;74.74
37298;BME280;30517;51.932;4.278;2022-12-07T11:47:09;101785.63;;;5.52;74.82
37298;BME280;30517;51.932;4.278;2022-12-07T11:50:13;101775.50;;;5.63;74.58
37298;BME280;30517;51.932;4.278;2022-12-07T11:53:01;101775.44;;;5.61;74.92
37298;BME280;30517;51.932;4.278;2022-12-07T11:55:57;101773.56;;;5.57;74.48
37298;BME280;30517;51.932;4.278;2022-12-07T12:05:13;101768.28;;;5.55;74.87
37298;BME280;30517;51.932;4.278;2022-12-07T12:07:28;101774.53;;;5.59;74.83
37298;BME280;30517;51.932;4.278;2022-12-07T12:10:25;101765.81;;;5.60;74.70
37298;BME280;30517;51.932;4.278;2022-12-07T12:16:28;101758.16;;;5.66;74.67
37298;BME280;30517;51.932;4.278;2022-12-07T12:19:37;101767.81;;;5.67;74.48
37298;BME280;30517;51.932;4.278;2022-12-07T12:22:25;101735.94;;;5.53;74.62
37298;BME280;30517;51.932;4.278;2022-12-07T12:25:20;101626.72;;;4.94;74.54
37298;BME280;30517;51.932;4.278;2022-12-07T12:28:02;101753.88;;;5.68;74.95
37298;BME280;30517;51.932;4.278;2022-12-07T12:30:43;101732.66;;;5.59;74.83
37298;BME280;30517;51.932;4.278;2022-12-07T12:33:29;101719.41;;;5.54;74.79
37298;BME280;30517;51.932;4.278;2022-12-07T12:36:19;101732.94;;;5.68;74.75
37298;BME280;30517;51.932;4.278;2022-12-07T12:47:41;101742.16;;;5.84;74.66
37298;BME280;30517;51.932;4.278;2022-12-07T12:50:25;101730.72;;;5.81;74.39
37298;BME280;30517;51.932;4.278;2022-12-07T12:53:24;101731.63;;;5.83;74.37
37298;BME280;30517;51.932;4.278;2022-12-07T12:56:10;101732.38;;;5.79;74.77
37298;BME280;30517;51.932;4.278;2022-12-07T12:59:25;101718.34;;;5.76;74.69
37298;BME280;30517;51.932;4.278;2022-12-07T13:02:25;101698.91;;;5.68;74.37
37298;BME280;30517;51.932;4.278;2022-12-07T13:05:16;101740.53;;;5.88;74.78
37298;BME280;30517;51.932;4.278;2022-12-07T13:08:17;101705.25;;;5.76;74.51
37298;BME280;30517;51.932;4.278;2022-12-07T13:11:35;101716.91;;;5.86;74.24
37298;BME280;30517;51.932;4.278;2022-12-07T13:20:40;101713.28;;;5.83;74.74
37298;BME280;30517;51.932;4.278;2022-12-07T13:29:20;101700.22;;;5.83;74.89
37298;BME280;30517;51.932;4.278;2022-12-07T13:32:01;101661.19;;;5.62;74.90
37298;BME280;30517;51.932;4.278;2022-12-07T13:34:42;101681.97;;;5.86;74.57
37298;BME280;30517;51.932;4.278;2022-12-07T13:37:27;101676.00;;;5.90;75.04
37298;BME280;30517;51.932;4.278;2022-12-07T13:40:20;101651.16;;;5.77;75.05
37298;BME280;30517;51.932;4.278;2022-12-07T13:43:04;101664.59;;;5.88;74.99
37298;BME280;30517;51.932;4.278;2022-12-07T13:45:56;101636.13;;;5.70;74.35
37298;BME280;30517;51.932;4.278;2022-12-07T13:48:44;101676.66;;;5.83;74.77
37298;BME280;30517;51.932;4.278;2022-12-07T13:51:28;101654.09;;;5.86;74.37
37298;BME280;30517;51.932;4.278;2022-12-07T13:54:10;101649.72;;;5.87;74.48
37298;BME280;30517;51.932;4.278;2022-12-07T13:56:52;101646.16;;;5.85;74.86
37298;BME280;30517;51.932;4.278;2022-12-07T13:59:33;101657.66;;;5.90;74.98
37298;BME280;30517;51.932;4.278;2022-12-07T14:13:38;101683.31;;;6.00;74.72
37298;BME280;30517;51.932;4.278;2022-12-07T14:16:25;101626.56;;;5.70;74.64
37298;BME280;30517;51.932;4.278;2022-12-07T14:22:33;101654.47;;;5.98;74.49
37298;BME280;30517;51.932;4.278;2022-12-07T14:25:20;101650.97;;;5.98;74.63
37298;BME280;30517;51.932;4.278;2022-12-07T14:28:02;101640.34;;;5.93;74.94
37298;BME280;30517;51.932;4.278;2022-12-07T14:30:42;101613.88;;;5.84;74.85
37298;BME280;30517;51.932;4.278;2022-12-07T14:33:24;101652.88;;;6.04;74.74
37298;BME280;30517;51.932;4.278;2022-12-07T14:36:05;101656.25;;;6.00;74.94
37298;BME280;30517;51.932;4.278;2022-12-07T14:38:46;101646.75;;;6.03;75.09
37298;BME280;30517;51.932;4.278;2022-12-07T14:41:27;101631.56;;;5.93;74.81
37298;BME280;30517;51.932;4.278;2022-12-07T14:44:27;101624.69;;;5.95;74.71
37298;BME280;30517;51.932;4.278;2022-12-07T14:47:10;101643.19;;;6.01;75.09
37298;BME280;30517;51.932;4.278;2022-12-07T14:49:51;101640.66;;;6.04;74.98
37298;BME280;30517;51.932;4.278;2022-12-07T14:52:32;101632.94;;;6.09;74.77
37298;BME280;30517;51.932;4.278;2022-12-07T14:55:33;101629.25;;;6.02;75.08
37298;BME280;30517;51.932;4.278;2022-12-07T14:58:16;101622.31;;;6.04;74.71
37298;BME280;30517;51.932;4.278;2022-12-07T15:00:57;101586.81;;;5.85;75.01
37298;BME280;30517;51.932;4.278;2022-12-07T15:03:37;101590.31;;;5.86;74.77
37298;BME280;30517;51.932;4.278;2022-12-07T15:06:18;101622.31;;;6.04;74.97
37298;BME280;30517;51.932;4.278;2022-12-07T15:11:19;101615.31;;;6.03;74.97
37298;BME280;30517;51.932;4.278;2022-12-07T15:13:59;101587.06;;;5.93;75.29
37298;BME280;30517;51.932;4.278;2022-12-07T15:16:50;101603.88;;;6.00;75.54
37298;BME280;30517;51.932;4.278;2022-12-07T15:19:31;101601.19;;;5.98;75.26
37298;BME280;30517;51.932;4.278;2022-12-07T15:22:12;101604.03;;;6.06;75.37
37298;BME280;30517;51.932;4.278;2022-12-07T15:24:53;101599.69;;;6.06;75.35
37298;BME280;30517;51.932;4.278;2022-12-07T15:27:34;101575.81;;;5.95;75.43
37298;BME280;30517;51.932;4.278;2022-12-07T15:30:15;101587.53;;;6.08;75.16
37298;BME280;30517;51.932;4.278;2022-12-07T15:32:56;101590.06;;;6.05;75.81
37298;BME280;30517;51.932;4.278;2022-12-07T15:35:43;101589.16;;;6.05;75.56
37298;BME280;30517;51.932;4.278;2022-12-07T15:38:24;101572.19;;;5.92;75.80
37298;BME280;30517;51.932;4.278;2022-12-07T15:41:07;101599.59;;;6.03;75.90
37298;BME280;30517;51.932;4.278;2022-12-07T15:43:48;101591.75;;;6.03;76.17
37298;BME280;30517;51.932;4.278;2022-12-07T15:46:47;101580.41;;;6.04;75.99
37298;BME280;30517;51.932;4.278;2022-12-07T15:49:28;101576.84;;;6.01;76.09
37298;BME280;30517;51.932;4.278;2022-12-07T15:52:09;101566.09;;;5.93;76.05
37298;BME280;30517;51.932;4.278;2022-12-07T15:54:50;101591.78;;;6.05;76.34
37298;BME280;30517;51.932;4.278;2022-12-07T15:57:33;101584.81;;;6.05;75.76
37298;BME280;30517;51.932;4.278;2022-12-07T16:00:14;101578.66;;;6.03;76.23
37298;BME280;30517;51.932;4.278;2022-12-07T16:02:55;101571.72;;;6.05;76.22
37298;BME280;30517;51.932;4.278;2022-12-07T16:05:36;101561.78;;;5.93;76.24
37298;BME280;30517;51.932;4.278;2022-12-07T16:08:17;101570.63;;;5.97;75.85
37298;BME280;30517;51.932;4.278;2022-12-07T16:10:57;101595.25;;;6.04;76.26
37298;BME280;30517;51.932;4.278;2022-12-07T16:13:39;101581.81;;;5.93;76.07
37298;BME280;30517;51.932;4.278;2022-12-07T16:16:20;101604.94;;;6.06;76.41
37298;BME280;30517;51.932;4.278;2022-12-07T16:19:04;101576.50;;;5.90;76.58
37298;BME280;30517;51.932;4.278;2022-12-07T16:21:45;101597.00;;;6.03;76.66
37298;BME280;30517;51.932;4.278;2022-12-07T16:24:26;101584.63;;;5.99;76.67
37298;BME280;30517;51.932;4.278;2022-12-07T16:27:07;101562.88;;;6.02;76.32
37298;BME280;30517;51.932;4.278;2022-12-07T16:29:48;101571.75;;;6.07;76.28